Time;durP1;ratioP1;P1;durP2;ratioP2;P2;SDS_P1;SDS_P2;PMS_P1;PMS_P2;Temp;Humidity;BMP_temperature;BMP_pressure;BME280_temperature;BME280_humidity;BME280_pressure;Samples;Min_cycle;Max_cycle;Signal;HPM_P1;HPM_P2
2020/12/28 00:02:02;;;;;;;38.35;18.05;;;;;;;0.40;73.04;96723.28;250359;1150;22987;-78
2020/12/28 00:07:06;;;;;;;40.57;17.60;;;;;;;0.24;73.35;96706.76;250307;1151;22966;-76
2020/12/28 00:12:08;;;;;;;31.85;14.40;;;;;;;0.14;73.65;96705.77;250343;1148;22938;-77
2020/12/28 00:17:11;;;;;;;34.87;15.53;;;;;;;0.10;74.31;96711.83;250257;1151;25554;-77
2020/12/28 00:22:15;;;;;;;35.73;17.00;;;;;;;0.09;74.39;96673.42;250197;1156;23010;-77
2020/12/28 00:27:17;;;;;;;38.75;16.95;;;;;;;0.09;74.28;96665.52;250223;1151;22970;-78
2020/12/28 00:32:19;;;;;;;31.13;14.87;;;;;;;0.12;74.56;96660.48;250310;1148;22897;-77
2020/12/28 00:37:22;;;;;;;40.83;17.50;;;;;;;0.11;74.49;96652.86;250213;1148;23344;-75
2020/12/28 00:42:24;;;;;;;43.75;18.30;;;;;;;0.13;75.77;96658.65;250166;1150;25976;-77
2020/12/28 00:47:26;;;;;;;26.23;11.17;;;;;;;0.24;76.05;96656.72;250300;1149;22934;-76
2020/12/28 00:52:28;;;;;;;17.57;7.27;;;;;;;0.55;77.75;96640.73;250251;1150;22938;-77
2020/12/28 00:57:31;;;;;;;30.57;12.80;;;;;;;0.85;77.24;96642.31;250248;1151;24411;-76
2020/12/28 01:02:33;;;;;;;38.90;16.13;;;;;;;0.90;76.25;96641.50;250265;1150;22935;-76
2020/12/28 01:07:38;;;;;;;38.07;15.80;;;;;;;0.87;76.64;96645.47;250217;1151;24407;-77
2020/12/28 01:12:55;;;;;;;33.80;15.20;;;;;;;0.87;76.36;96634.13;250303;1150;22986;-78
2020/12/28 01:17:58;;;;;;;37.07;15.07;;;;;;;0.89;76.71;96624.09;250344;1151;22955;-77
2020/12/28 01:23:10;;;;;;;24.80;10.70;;;;;;;0.88;76.60;96596.16;250191;1156;22973;-77
2020/12/28 01:28:25;;;;;;;10.90;4.77;;;;;;;0.97;77.20;96589.22;250311;1150;23024;-77
2020/12/28 01:33:28;;;;;;;11.17;5.20;;;;;;;1.15;77.44;96570.03;250327;1156;22922;-76
2020/12/28 01:38:34;;;;;;;12.10;5.70;;;;;;;1.36;77.92;96553.98;250189;1151;23414;-76
2020/12/28 01:43:36;;;;;;;20.55;8.80;;;;;;;1.45;77.46;96554.91;250678;1153;22929;-76
2020/12/28 01:48:39;;;;;;;18.55;8.60;;;;;;;1.52;77.75;96560.61;250270;1150;23042;-77
2020/12/28 01:53:42;;;;;;;7.53;3.73;;;;;;;1.63;77.75;96548.08;250148;1149;22995;-76
2020/12/28 01:58:51;;;;;;;7.03;3.30;;;;;;;1.88;77.89;96546.94;250228;1150;22927;-77
2020/12/28 02:03:55;;;;;;;8.13;4.40;;;;;;;2.18;78.09;96542.28;250239;1148;23007;-75
2020/12/28 02:09:06;;;;;;;8.70;4.97;;;;;;;2.48;78.15;96521.70;250371;1151;23515;-76
2020/12/28 02:14:09;;;;;;;4.70;2.20;;;;;;;2.79;78.46;96515.88;250624;1153;23330;-76
2020/12/28 02:19:19;;;;;;;3.37;0.90;;;;;;;3.12;78.10;96531.67;250138;1148;22967;-77
2020/12/28 02:24:24;;;;;;;2.57;1.07;;;;;;;3.34;77.86;96549.47;250107;1156;22935;-76
2020/12/28 02:29:27;;;;;;;0.90;0.75;;;;;;;3.50;77.29;96539.37;250216;1148;26511;-77
2020/12/28 02:34:30;;;;;;;2.97;1.07;;;;;;;3.60;76.91;96515.31;250309;1148;22904;-77
2020/12/28 02:39:41;;;;;;;1.30;0.73;;;;;;;3.66;76.85;96491.38;250139;1150;22980;-76
2020/12/28 02:44:43;;;;;;;1.43;0.97;;;;;;;3.71;76.61;96484.11;250118;1148;23085;-77
2020/12/28 02:50:05;;;;;;;2.83;1.30;;;;;;;3.76;76.73;96483.20;250112;1148;23024;-76
2020/12/28 02:55:25;;;;;;;2.40;1.20;;;;;;;3.72;76.71;96479.58;250210;1148;22936;-76
2020/12/28 03:00:47;;;;;;;3.30;0.97;;;;;;;3.65;76.14;96480.02;250339;1148;22925;-77
2020/12/28 03:06:07;;;;;;;3.83;1.27;;;;;;;3.62;76.49;96467.36;250591;1152;22918;-75
2020/12/28 03:11:28;;;;;;;2.50;1.00;;;;;;;3.64;76.60;96448.52;250132;1148;22936;-76
2020/12/28 03:16:49;;;;;;;2.30;1.20;;;;;;;3.63;76.63;96431.09;250132;1148;23018;-77
2020/12/28 03:22:11;;;;;;;1.90;1.30;;;;;;;3.60;76.47;96422.66;250212;1150;22929;-77
2020/12/28 03:27:32;;;;;;;4.53;2.13;;;;;;;3.54;76.35;96431.00;250174;1150;23085;-77
2020/12/28 03:32:54;;;;;;;7.90;3.63;;;;;;;3.44;76.50;96426.72;250109;1148;22916;-76
2020/12/28 03:38:14;;;;;;;7.67;3.97;;;;;;;3.33;76.29;96398.92;250317;1148;22938;-76
2020/12/28 03:43:35;;;;;;;8.20;3.90;;;;;;;3.17;76.42;96387.91;250415;1156;22963;-76
2020/12/28 03:48:56;;;;;;;7.20;3.43;;;;;;;3.04;76.89;96377.06;250083;1150;22886;-78
2020/12/28 03:54:17;;;;;;;6.93;2.90;;;;;;;2.96;76.83;96372.47;250363;1148;23169;-76
2020/12/28 03:59:38;;;;;;;5.87;2.67;;;;;;;2.91;76.84;96362.02;250077;1148;22929;-78
2020/12/28 04:04:59;;;;;;;2.80;1.63;;;;;;;2.90;76.63;96363.09;250233;1149;22981;-77
2020/12/28 04:10:19;;;;;;;3.63;1.83;;;;;;;2.90;77.37;96350.64;250115;1148;22929;-76
2020/12/28 04:15:30;;;;;;;4.37;2.43;;;;;;;2.90;77.13;96347.23;250107;1155;22984;-77
2020/12/28 04:20:33;;;;;;;6.03;2.37;;;;;;;2.93;77.37;96345.85;250064;1148;22959;-78
2020/12/28 04:25:35;;;;;;;4.05;1.95;;;;;;;2.93;76.96;96329.98;250170;1155;22956;-77
2020/12/28 04:30:38;;;;;;;3.45;2.00;;;;;;;2.93;77.02;96346.62;250156;1151;23047;-76
2020/12/28 04:35:40;;;;;;;3.90;2.30;;;;;;;2.83;76.94;96336.28;250218;1148;22918;-77
2020/12/28 04:40:42;;;;;;;5.20;2.57;;;;;;;2.67;77.02;96335.80;250156;1148;23352;-77
2020/12/28 04:45:44;;;;;;;3.77;2.40;;;;;;;2.53;76.88;96341.11;250220;1155;23073;-78
2020/12/28 04:50:46;;;;;;;3.17;1.80;;;;;;;2.47;77.41;96327.22;250199;1148;22963;-76
2020/12/28 04:55:48;;;;;;;3.43;1.63;;;;;;;2.47;77.37;96321.16;250323;1148;22937;-75
2020/12/28 05:01:01;;;;;;;4.67;2.50;;;;;;;2.45;77.45;96316.17;250319;1148;23388;-76
2020/12/28 05:06:03;;;;;;;2.70;1.70;;;;;;;2.49;77.59;96309.22;250089;1155;22938;-76
2020/12/28 05:11:11;;;;;;;3.70;1.70;;;;;;;2.56;77.69;96293.73;250151;1148;23001;-77
2020/12/28 05:16:14;;;;;;;2.80;1.60;;;;;;;2.65;77.37;96288.52;250250;1156;22946;-77
2020/12/28 05:21:24;;;;;;;3.70;1.90;;;;;;;2.70;77.81;96293.70;250257;1148;22918;-76
2020/12/28 05:26:26;;;;;;;3.58;1.67;;;;;;;2.70;77.39;96298.19;250228;1148;23337;-77
2020/12/28 05:31:32;;;;;;;7.67;2.20;;;;;;;2.68;77.58;96290.56;250077;1148;22912;-75
2020/12/28 05:36:35;;;;;;;4.30;2.30;;;;;;;2.68;77.29;96290.56;250197;1147;26351;-76
2020/12/28 05:41:37;;;;;;;6.03;3.17;;;;;;;2.69;77.81;96294.78;250183;1153;22918;-77
2020/12/28 05:46:39;;;;;;;8.87;3.50;;;;;;;2.64;77.73;96294.88;250157;1156;23196;-75
2020/12/28 05:51:42;;;;;;;9.93;4.53;;;;;;;2.54;77.37;96274.73;250038;1148;22998;-77
2020/12/28 05:56:45;;;;;;;11.60;4.37;;;;;;;2.51;77.53;96269.27;250352;1148;22901;-77
2020/12/28 06:01:48;;;;;;;13.63;6.43;;;;;;;2.51;77.67;96277.97;250213;1148;22963;-76
2020/12/28 06:07:03;;;;;;;20.30;8.53;;;;;;;2.48;77.83;96278.58;250033;1148;27604;-77
2020/12/28 06:12:07;;;;;;;25.50;10.10;;;;;;;2.40;77.53;96287.20;250462;1147;25893;-76
2020/12/28 06:17:12;;;;;;;22.60;9.15;;;;;;;2.28;77.76;96289.55;250522;1153;23015;-75
2020/12/28 06:22:19;;;;;;;22.87;9.20;;;;;;;2.12;77.93;96281.94;250301;1148;23475;-77
2020/12/28 06:27:26;;;;;;;15.43;7.40;;;;;;;2.01;78.42;96275.29;250100;1148;26376;-77
2020/12/28 06:32:29;;;;;;;11.00;5.30;;;;;;;1.87;77.86;96267.37;250239;1153;22932;-78
2020/12/28 06:37:48;;;;;;;13.13;5.33;;;;;;;1.71;77.45;96264.23;250454;1153;23134;-76
2020/12/28 06:42:51;;;;;;;14.57;5.93;;;;;;;1.65;78.23;96233.72;250263;1148;23070;-77
2020/12/28 06:47:53;;;;;;;15.93;6.83;;;;;;;1.69;78.39;96235.50;250159;1148;23062;-76
2020/12/28 06:52:55;;;;;;;14.73;6.53;;;;;;;1.75;78.17;96244.11;250497;1148;23273;-75
2020/12/28 06:58:01;;;;;;;15.57;7.67;;;;;;;1.76;78.39;96224.53;251147;1147;23398;-75
2020/12/28 07:03:11;;;;;;;19.97;9.03;;;;;;;1.79;78.03;96218.69;251161;1147;22946;-75
2020/12/28 07:08:23;;;;;;;;;;;;;;;1.79;77.84;96215.25;252962;1149;23005;-78
2020/12/28 07:13:25;;;;;;;13.77;6.33;;;;;;;1.74;78.13;96205.58;251212;1148;22142;-77
2020/12/28 07:18:28;;;;;;;12.15;5.40;;;;;;;1.73;77.95;96211.16;250763;1147;25181;-77
2020/12/28 07:23:35;;;;;;;11.90;4.63;;;;;;;1.83;78.04;96219.67;250650;1148;23026;-77
2020/12/28 07:28:40;;;;;;;13.77;7.33;;;;;;;1.95;78.43;96205.19;250834;1148;22951;-77
2020/12/28 07:33:47;;;;;;;14.07;7.63;;;;;;;1.96;78.03;96209.37;250929;1147;25297;-79
2020/12/28 07:38:49;;;;;;;15.83;7.13;;;;;;;1.92;77.87;96206.55;250873;1147;26366;-78
2020/12/28 07:43:57;;;;;;;16.30;7.60;;;;;;;1.97;78.50;96208.30;250891;1148;22927;-79
2020/12/28 07:49:23;;;;;;;17.27;8.17;;;;;;;1.96;78.09;96207.53;250814;1148;22915;-77
2020/12/28 07:54:28;;;;;;;18.33;9.03;;;;;;;1.96;77.71;96209.37;251252;1147;22966;-78
2020/12/28 07:59:53;;;;;;;22.60;10.33;;;;;;;1.97;77.58;96203.02;251068;1147;22936;-77
2020/12/28 08:04:57;;;;;;;21.90;10.90;;;;;;;2.03;78.20;96184.14;250607;1148;22931;-77
2020/12/28 08:10:00;;;;;;;24.23;11.70;;;;;;;2.11;77.90;96168.67;250645;1148;26076;-77
2020/12/28 08:15:02;;;;;;;30.87;13.83;;;;;;;2.30;78.61;96179.09;250694;1147;22955;-77
2020/12/28 08:20:13;;;;;;;27.87;13.77;;;;;;;3.10;78.74;96174.05;250935;1147;22997;-77
2020/12/28 08:25:16;;;;;;;25.10;13.50;;;;;;;3.32;78.03;96175.09;250830;1147;22953;-77
2020/12/28 08:30:18;;;;;;;20.57;10.97;;;;;;;3.46;77.62;96164.41;250488;1148;23415;-75
2020/12/28 08:35:20;;;;;;;19.90;10.90;;;;;;;3.66;77.21;96174.43;250648;1147;23388;-78
2020/12/28 08:40:23;;;;;;;18.60;9.95;;;;;;;3.86;77.19;96173.10;250907;1147;22912;-76
2020/12/28 08:45:27;;;;;;;18.43;9.83;;;;;;;4.07;77.21;96180.45;250746;1148;22904;-78
2020/12/28 08:50:35;;;;;;;14.77;7.87;;;;;;;4.22;76.48;96174.70;250673;1148;22924;-78
2020/12/28 08:55:37;;;;;;;16.17;8.73;;;;;;;4.40;76.16;96166.77;250390;1148;22949;-76
2020/12/28 09:00:39;;;;;;;20.90;11.60;;;;;;;4.48;76.47;96184.55;250456;1148;23088;-78
2020/12/28 09:05:42;;;;;;;19.70;9.67;;;;;;;4.60;76.36;96186.56;250472;1148;23111;-78
2020/12/28 09:10:43;;;;;;;22.37;12.07;;;;;;;4.70;75.94;96175.66;250575;1148;22960;-78
2020/12/28 09:15:45;;;;;;;25.95;13.20;;;;;;;4.80;76.29;96177.22;250614;1147;23082;-76
2020/12/28 09:20:47;;;;;;;28.90;15.20;;;;;;;4.90;76.08;96170.80;250587;1147;23059;-78
2020/12/28 09:25:49;;;;;;;34.50;17.57;;;;;;;4.97;75.72;96147.98;250793;1146;23370;-78
2020/12/28 09:30:51;;;;;;;17.90;8.67;;;;;;;5.13;75.83;96140.31;250490;1148;26385;-77
2020/12/28 09:35:54;;;;;;;11.17;5.77;;;;;;;5.38;75.58;96129.13;250758;1147;23014;-77
2020/12/28 09:40:56;;;;;;;9.30;4.40;;;;;;;5.57;74.73;96124.20;250510;1148;22963;-78
2020/12/28 09:45:58;;;;;;;8.00;4.47;;;;;;;5.74;74.76;96130.53;250439;1147;22967;-76
2020/12/28 09:51:00;;;;;;;9.75;5.10;;;;;;;5.87;74.76;96116.21;250752;1147;22922;-78
2020/12/28 09:56:02;;;;;;;9.37;5.00;;;;;;;6.01;74.09;96107.26;250585;1147;26031;-78
2020/12/28 10:01:05;;;;;;;7.33;3.83;;;;;;;6.12;73.97;96095.13;250291;1148;23383;-77
2020/12/28 10:11:28;;;;;;;5.53;3.40;;;;;;;6.24;72.94;96083.77;250663;1146;22943;-77
2020/12/28 10:16:31;;;;;;;3.97;2.53;;;;;;;6.25;73.50;96085.33;250816;1147;22943;-77
2020/12/28 10:21:35;;;;;;;5.10;3.05;;;;;;;6.28;73.00;96068.72;250581;1148;22934;-77
2020/12/28 10:26:37;;;;;;;5.00;2.97;;;;;;;6.29;71.92;96059.66;250622;1147;22948;-78
2020/12/28 10:31:40;;;;;;;6.87;3.60;;;;;;;6.25;72.11;96051.54;250822;1147;22896;-77
2020/12/28 10:36:44;;;;;;;6.73;3.57;;;;;;;6.20;71.32;96057.08;250997;1147;23006;-76
2020/12/28 10:41:46;;;;;;;5.80;3.30;;;;;;;6.17;71.69;96039.13;250697;1148;22929;-77
2020/12/28 10:46:49;;;;;;;6.65;3.70;;;;;;;6.15;71.09;96042.09;250542;1147;23458;-78
2020/12/28 10:51:51;;;;;;;6.53;3.33;;;;;;;6.08;71.11;96036.52;250740;1148;22936;-77
2020/12/28 10:56:55;;;;;;;6.17;3.60;;;;;;;6.04;70.85;96032.19;250589;1147;22957;-77
2020/12/28 11:01:57;;;;;;;7.17;3.20;;;;;;;6.03;70.55;96033.28;250401;1148;22927;-76
2020/12/28 11:06:59;;;;;;;6.33;2.70;;;;;;;6.07;69.98;96032.33;250825;1148;28995;-77
2020/12/28 11:12:01;;;;;;;7.67;3.87;;;;;;;6.07;70.80;96055.45;251082;1148;22975;-78
2020/12/28 11:17:04;;;;;;;7.70;3.40;;;;;;;6.05;70.62;96045.15;251208;1148;23062;-77
2020/12/28 11:22:07;;;;;;;5.97;3.40;;;;;;;6.00;69.75;96045.34;250747;1148;22916;-77
2020/12/28 11:27:10;;;;;;;8.00;3.90;;;;;;;5.99;69.69;96052.55;251445;1147;23016;-77
2020/12/28 11:32:12;;;;;;;5.80;2.83;;;;;;;5.98;70.03;96048.33;251518;1147;22919;-77
2020/12/28 11:37:15;;;;;;;10.07;3.50;;;;;;;5.98;69.84;96044.90;251692;1148;22978;-79
2020/12/28 11:42:18;;;;;;;6.05;3.30;;;;;;;5.96;69.81;96052.37;250785;1151;22969;-77
2020/12/28 11:47:20;;;;;;;8.13;4.03;;;;;;;5.92;68.99;96044.29;251396;1147;22956;-80
2020/12/28 11:52:23;;;;;;;9.50;4.30;;;;;;;5.94;69.48;96043.97;251061;1148;22941;-78
2020/12/28 11:57:26;;;;;;;10.33;5.07;;;;;;;6.01;69.76;96052.22;251252;1148;23040;-78
2020/12/28 12:02:29;;;;;;;10.37;5.10;;;;;;;6.11;69.83;96054.50;250826;1148;22928;-79
2020/12/28 12:07:31;;;;;;;12.10;5.80;;;;;;;6.17;70.34;96065.70;250594;1151;22931;-79
2020/12/28 12:12:33;;;;;;;13.77;6.20;;;;;;;6.22;70.13;96070.80;250827;1148;27691;-79
2020/12/28 12:17:35;;;;;;;11.60;6.27;;;;;;;6.20;69.22;96082.86;250920;1148;22907;-79
2020/12/28 12:22:37;;;;;;;17.87;8.93;;;;;;;6.19;69.79;96082.09;250639;1148;23356;-81
2020/12/28 12:27:39;;;;;;;17.50;9.10;;;;;;;6.18;68.56;96083.19;250834;1148;22928;-83
2020/12/28 12:32:48;;;;;;;18.53;8.30;;;;;;;6.04;68.01;96094.08;251128;1148;22921;-79
2020/12/28 12:37:50;;;;;;;13.10;6.87;;;;;;;6.00;68.06;96087.86;250885;1148;23011;-79
2020/12/28 12:42:52;;;;;;;11.15;6.05;;;;;;;5.96;68.59;96095.69;250813;1147;22928;-77
2020/12/28 12:47:54;;;;;;;11.67;5.63;;;;;;;5.92;68.17;96083.37;250935;1148;23000;-78
2020/12/28 12:52:56;;;;;;;7.83;4.00;;;;;;;5.87;67.94;96080.91;250496;1148;23024;-76
2020/12/28 12:57:59;;;;;;;10.87;4.87;;;;;;;5.88;68.12;96083.23;250473;1148;22929;-79
2020/12/28 13:03:01;;;;;;;8.50;4.93;;;;;;;5.92;67.23;96078.06;251199;1147;22950;-78
2020/12/28 13:08:03;;;;;;;8.77;4.03;;;;;;;5.89;67.24;96079.48;251050;1148;23042;-78
2020/12/28 13:13:05;;;;;;;8.63;4.77;;;;;;;5.80;67.49;96076.87;250317;1148;22938;-78
2020/12/28 13:18:07;;;;;;;8.30;4.20;;;;;;;5.64;66.65;96071.36;250410;1148;22974;-77
2020/12/28 13:23:09;;;;;;;7.67;4.47;;;;;;;5.51;66.72;96084.86;250674;1148;23082;-77
2020/12/28 13:28:11;;;;;;;8.07;4.10;;;;;;;5.41;66.23;96105.36;250690;1147;22893;-78
2020/12/28 13:33:13;;;;;;;10.50;5.20;;;;;;;5.35;66.51;96109.30;250660;1148;23089;-77
2020/12/28 13:38:15;;;;;;;9.97;4.20;;;;;;;5.33;66.78;96129.30;250640;1147;22905;-80
2020/12/28 13:43:18;;;;;;;8.95;4.85;;;;;;;5.29;66.74;96129.94;250219;1148;23465;-78
2020/12/28 13:48:20;;;;;;;8.10;4.17;;;;;;;5.29;66.21;96129.94;250248;1148;23015;-78
2020/12/28 13:53:23;;;;;;;10.57;4.33;;;;;;;5.28;67.10;96123.07;250662;1148;23030;-78
2020/12/28 13:58:25;;;;;;;9.77;4.83;;;;;;;5.26;67.23;96117.31;250286;1148;26376;-76
2020/12/28 14:03:27;;;;;;;10.87;4.93;;;;;;;5.24;67.49;96111.53;250695;1148;22931;-77
2020/12/28 14:08:29;;;;;;;9.25;4.55;;;;;;;5.21;67.28;96101.55;250677;1147;22947;-79
2020/12/28 14:13:31;;;;;;;11.20;5.50;;;;;;;5.22;67.75;96111.08;250184;1148;22931;-77
2020/12/28 14:18:33;;;;;;;15.55;6.40;;;;;;;5.28;67.94;96111.69;250297;1148;22935;-77
2020/12/28 14:23:37;;;;;;;13.90;6.63;;;;;;;5.25;67.74;96110.44;250607;1147;22930;-77
2020/12/28 14:28:41;;;;;;;12.10;6.57;;;;;;;5.21;67.66;96106.09;250521;1146;23376;-78
2020/12/28 14:33:44;;;;;;;12.57;6.67;;;;;;;5.16;67.95;96108.91;250602;1148;24466;-78
2020/12/28 14:38:47;;;;;;;12.83;6.80;;;;;;;5.10;68.34;96105.66;250420;1148;22943;-78
2020/12/28 14:43:49;;;;;;;12.70;6.40;;;;;;;5.04;68.06;96117.55;250607;1147;23580;-78
2020/12/28 14:48:54;;;;;;;11.03;5.50;;;;;;;5.02;68.52;96115.19;250419;1148;22938;-78
2020/12/28 14:53:56;;;;;;;11.83;5.53;;;;;;;5.05;68.00;96111.13;250410;1148;22910;-78
2020/12/28 14:58:58;;;;;;;10.23;4.97;;;;;;;5.05;68.62;96108.48;250944;1148;22954;-78
2020/12/28 15:04:00;;;;;;;10.23;5.43;;;;;;;5.03;68.42;96113.34;250946;1149;22948;-80
2020/12/28 15:09:03;;;;;;;12.20;5.83;;;;;;;4.95;68.69;96130.82;251028;1151;22989;-78
2020/12/28 15:14:05;;;;;;;13.33;6.43;;;;;;;4.82;68.86;96127.27;250718;1148;27639;-79
2020/12/28 15:19:07;;;;;;;15.43;7.37;;;;;;;4.67;68.64;96141.02;250395;1148;22954;-78
2020/12/28 15:24:09;;;;;;;15.37;7.30;;;;;;;4.53;68.84;96149.91;250304;1151;23008;-79
2020/12/28 15:29:12;;;;;;;13.97;7.33;;;;;;;4.40;69.46;96167.55;250212;1149;23095;-78
2020/12/28 15:34:14;;;;;;;15.67;8.27;;;;;;;4.24;69.71;96155.84;250247;1148;22950;-76
2020/12/28 15:39:16;;;;;;;13.83;6.87;;;;;;;4.11;69.94;96142.45;250210;1148;22928;-79
2020/12/28 15:44:18;;;;;;;13.90;6.50;;;;;;;4.01;69.71;96148.02;250245;1151;22938;-79
2020/12/28 15:49:20;;;;;;;14.20;5.60;;;;;;;3.89;69.97;96166.39;250165;1148;23031;-78
2020/12/28 15:54:24;;;;;;;10.47;5.43;;;;;;;3.83;70.10;96152.51;250368;1148;22922;-79
2020/12/28 15:59:29;;;;;;;9.00;4.67;;;;;;;3.84;70.35;96148.02;250474;1148;23073;-77
2020/12/28 16:04:32;;;;;;;9.37;5.03;;;;;;;3.83;70.76;96144.56;250611;1148;22889;-78
2020/12/28 16:09:35;;;;;;;11.03;5.03;;;;;;;3.82;70.58;96150.97;250544;1148;22935;-80
2020/12/28 16:14:37;;;;;;;13.40;6.67;;;;;;;3.83;70.89;96151.73;250716;1148;23191;-77
2020/12/28 16:19:39;;;;;;;12.55;5.60;;;;;;;3.84;70.55;96155.95;250636;1148;22963;-81
2020/12/28 16:24:42;;;;;;;16.30;6.80;;;;;;;3.89;70.19;96156.59;250562;1148;22893;-78
2020/12/28 16:29:46;;;;;;;13.90;5.57;;;;;;;3.96;70.54;96156.14;250605;1149;23245;-79
2020/12/28 16:34:50;;;;;;;12.47;5.87;;;;;;;4.03;70.28;96145.06;250436;1149;23102;-79
2020/12/28 16:39:52;;;;;;;14.57;6.33;;;;;;;4.13;70.40;96136.03;250665;1148;22928;-78
2020/12/28 16:44:56;;;;;;;10.53;5.43;;;;;;;4.19;70.55;96134.81;250658;1148;23009;-79
2020/12/28 16:49:58;;;;;;;7.97;4.03;;;;;;;4.25;70.26;96118.45;250479;1148;22957;-78
2020/12/28 16:55:00;;;;;;;6.20;3.70;;;;;;;4.40;69.93;96105.81;250547;1148;23382;-79
2020/12/28 17:00:04;;;;;;;6.37;3.57;;;;;;;4.54;69.68;96102.98;250769;1148;22925;-79
2020/12/28 17:05:15;;;;;;;8.03;3.83;;;;;;;4.63;69.88;96103.73;250492;1150;22942;-79
2020/12/28 17:10:19;;;;;;;14.73;7.73;;;;;;;4.70;69.97;96105.91;250491;1148;22935;-79
2020/12/28 17:15:21;;;;;;;9.77;5.40;;;;;;;4.71;69.59;96105.59;250811;1147;23024;-78
2020/12/28 17:20:24;;;;;;;8.23;4.13;;;;;;;4.72;69.51;96090.48;250608;1148;22914;-79
2020/12/28 17:25:28;;;;;;;4.87;3.17;;;;;;;4.70;69.56;96088.15;250684;1148;22924;-79
2020/12/28 17:30:30;;;;;;;4.80;2.70;;;;;;;4.76;70.29;96091.41;250544;1148;23092;-80
2020/12/28 17:35:32;;;;;;;3.90;2.10;;;;;;;4.88;69.49;96091.54;250352;1148;23405;-79
2020/12/28 17:40:35;;;;;;;5.03;2.70;;;;;;;4.95;69.61;96099.78;250448;1148;23412;-77
2020/12/28 17:45:37;;;;;;;6.53;2.77;;;;;;;5.00;69.73;96082.91;250420;1148;23086;-79
2020/12/28 17:50:39;;;;;;;6.70;2.67;;;;;;;5.16;69.43;96074.41;250369;1148;27618;-78
2020/12/28 17:55:42;;;;;;;5.37;2.37;;;;;;;5.27;68.74;96086.23;250310;1148;23015;-77
2020/12/28 18:00:44;;;;;;;4.27;2.23;;;;;;;5.37;69.42;96093.06;250251;1148;22969;-79
2020/12/28 18:05:46;;;;;;;7.40;3.10;;;;;;;5.41;69.36;96115.22;250401;1148;23014;-78
2020/12/28 18:10:48;;;;;;;5.57;3.10;;;;;;;5.44;69.18;96101.30;250412;1148;22925;-78
2020/12/28 18:15:50;;;;;;;7.85;3.45;;;;;;;5.46;68.92;96107.84;250406;1148;22932;-81
2020/12/28 18:20:52;;;;;;;5.95;3.10;;;;;;;5.51;69.10;96104.22;250348;1148;23010;-79
2020/12/28 18:25:54;;;;;;;6.87;2.90;;;;;;;5.53;69.01;96070.17;250287;1148;23021;-79
2020/12/28 18:30:57;;;;;;;7.33;3.90;;;;;;;5.54;68.95;96069.08;250283;1148;23021;-80
2020/12/28 18:35:59;;;;;;;9.80;5.10;;;;;;;5.57;69.27;96071.09;250615;1148;22938;-79
2020/12/28 18:41:02;;;;;;;17.13;7.23;;;;;;;5.62;68.73;96068.25;250829;1148;22963;-79
2020/12/28 18:46:05;;;;;;;21.20;10.40;;;;;;;5.42;68.04;96059.14;250472;1148;22915;-82
2020/12/28 18:51:13;;;;;;;18.20;8.60;;;;;;;5.34;69.00;96061.84;250828;1148;23005;-79
2020/12/28 18:56:15;;;;;;;14.17;6.40;;;;;;;5.36;69.41;96060.44;251072;1148;22923;-78
2020/12/28 19:01:18;;;;;;;12.37;5.53;;;;;;;5.45;69.51;96069.11;251365;1148;22958;-82
2020/12/28 19:06:21;;;;;;;12.65;6.20;;;;;;;5.61;69.20;96063.23;250911;1148;22941;-80
2020/12/28 19:11:23;;;;;;;10.60;4.85;;;;;;;5.73;69.40;96051.93;250819;1148;22963;-81
2020/12/28 19:16:41;;;;;;;10.37;4.83;;;;;;;5.88;69.04;96046.04;250798;1148;24276;-78
2020/12/28 19:21:44;;;;;;;9.10;4.80;;;;;;;5.95;69.20;96037.55;251029;1148;22938;-79
2020/12/28 19:26:48;;;;;;;6.97;3.33;;;;;;;6.04;69.25;96024.22;250742;1148;22919;-79
2020/12/28 19:31:50;;;;;;;8.17;4.23;;;;;;;6.13;68.58;96016.96;251173;1148;22928;-81
2020/12/28 19:36:54;;;;;;;9.10;4.53;;;;;;;6.23;68.85;96008.56;251712;1148;22954;-78
2020/12/28 19:41:57;;;;;;;7.93;3.40;;;;;;;6.31;68.69;95994.41;252050;1148;23082;-79
2020/12/28 19:46:59;;;;;;;10.33;4.60;;;;;;;6.36;68.52;95982.02;251559;1148;22935;-80
2020/12/28 19:52:01;;;;;;;8.15;3.60;;;;;;;6.37;68.68;95984.34;251814;1148;23303;-79
2020/12/28 19:57:04;;;;;;;11.00;5.50;;;;;;;6.45;68.94;95978.16;250976;1148;28025;-79
2020/12/28 20:02:06;;;;;;;11.33;5.77;;;;;;;6.54;68.84;95975.41;251628;1148;22885;-83
2020/12/28 20:07:09;;;;;;;12.97;5.93;;;;;;;6.57;68.78;95961.44;251239;1148;22953;-80
2020/12/28 20:12:13;;;;;;;10.57;4.97;;;;;;;6.52;68.02;95959.02;252220;1148;26382;-79
2020/12/28 20:17:37;;;;;;;13.03;5.63;;;;;;;6.50;68.42;95956.66;251110;1148;22957;-80
2020/12/28 20:22:39;;;;;;;9.95;4.60;;;;;;;6.56;68.41;95959.91;250907;1148;24761;-80
2020/12/28 20:27:42;;;;;;;11.03;4.90;;;;;;;6.64;68.24;95964.32;251257;1147;22967;-79
2020/12/28 20:32:45;;;;;;;9.70;4.50;;;;;;;6.67;67.73;95954.91;250778;1148;22951;-79
2020/12/28 20:37:49;;;;;;;8.87;4.00;;;;;;;6.71;67.98;95939.07;250689;1148;22927;-79
2020/12/28 20:42:51;;;;;;;7.80;3.80;;;;;;;6.75;67.96;95929.32;250748;1151;22970;-79
2020/12/28 20:47:56;;;;;;;8.03;3.63;;;;;;;6.84;68.08;95928.09;250890;1148;22956;-80
2020/12/28 20:53:04;;;;;;;8.50;3.73;;;;;;;6.93;68.13;95913.91;251283;1148;24233;-78
2020/12/28 20:58:10;;;;;;;6.77;3.33;;;;;;;6.98;67.85;95903.80;251220;1148;23005;-83
2020/12/28 21:03:13;;;;;;;6.33;3.33;;;;;;;7.03;67.59;95897.47;250706;1148;22922;-78
2020/12/28 21:08:17;;;;;;;8.47;3.67;;;;;;;7.09;68.13;95882.04;251464;1148;23082;-87
2020/12/28 21:13:22;;;;;;;8.10;3.85;;;;;;;7.17;67.36;95873.91;250785;1148;26363;-80
2020/12/28 21:18:24;;;;;;;9.10;4.07;;;;;;;7.24;67.35;95876.02;250383;1149;22953;-79
2020/12/28 21:23:26;;;;;;;11.10;4.27;;;;;;;7.25;67.54;95866.92;250315;1148;26552;-78
2020/12/28 21:28:32;;;;;;;7.43;4.13;;;;;;;7.25;67.30;95872.25;250462;1148;22928;-78
2020/12/28 21:33:36;;;;;;;6.65;3.35;;;;;;;7.25;67.03;95866.92;250630;1148;22953;-80
2020/12/28 21:38:38;;;;;;;8.00;3.60;;;;;;;7.27;67.05;95875.33;250534;1150;22960;-81
2020/12/28 21:43:42;;;;;;;9.37;4.10;;;;;;;7.28;66.47;95868.14;250325;1148;22953;-78
2020/12/28 21:48:44;;;;;;;12.73;5.83;;;;;;;7.32;66.94;95858.36;250484;1148;22962;-80
2020/12/28 21:53:47;;;;;;;11.30;5.75;;;;;;;7.36;66.97;95841.36;250320;1148;24299;-80
2020/12/28 21:58:49;;;;;;;8.07;3.97;;;;;;;7.42;66.57;95843.79;250397;1148;22960;-79
2020/12/28 22:03:51;;;;;;;9.07;4.50;;;;;;;7.45;66.37;95851.09;250473;1148;23038;-80
2020/12/28 22:08:53;;;;;;;9.40;4.35;;;;;;;7.42;66.47;95854.45;250122;1148;22952;-78
2020/12/28 22:14:02;;;;;;;10.20;4.57;;;;;;;7.36;66.47;95860.00;250583;1148;22963;-79
2020/12/28 22:19:04;;;;;;;8.20;3.90;;;;;;;7.31;66.45;95851.48;250382;1148;22928;-79
2020/12/28 22:24:06;;;;;;;9.60;4.37;;;;;;;7.29;66.34;95856.35;250608;1150;22932;-80
2020/12/28 22:29:08;;;;;;;11.13;5.33;;;;;;;7.17;65.84;95849.95;250446;1148;23101;-79
2020/12/28 22:34:11;;;;;;;18.23;8.97;;;;;;;6.95;65.80;95842.48;250343;1148;22929;-79
2020/12/28 22:39:13;;;;;;;20.90;8.80;;;;;;;6.71;66.14;95849.39;250374;1148;22957;-78
2020/12/28 22:44:15;;;;;;;19.70;10.30;;;;;;;6.49;66.28;95845.30;250394;1148;22898;-79
2020/12/28 22:49:18;;;;;;;20.85;10.95;;;;;;;6.30;66.16;95849.29;250407;1148;22949;-78
2020/12/28 22:54:20;;;;;;;21.53;10.53;;;;;;;6.16;67.01;95828.34;250913;1148;22928;-79
2020/12/28 22:59:23;;;;;;;19.63;9.97;;;;;;;6.08;66.86;95834.53;250574;1148;22953;-79
2020/12/28 23:04:25;;;;;;;18.27;9.23;;;;;;;6.01;67.23;95834.31;250377;1148;22931;-80
2020/12/28 23:09:27;;;;;;;24.90;10.63;;;;;;;5.91;67.18;95827.52;250185;1148;25980;-77
2020/12/28 23:14:29;;;;;;;18.47;9.17;;;;;;;5.75;67.82;95830.04;250392;1148;22977;-84
2020/12/28 23:19:32;;;;;;;21.37;10.50;;;;;;;5.62;68.10;95826.58;250382;1148;23033;-79
2020/12/28 23:24:34;;;;;;;23.20;10.03;;;;;;;5.51;68.06;95817.45;250314;1148;23010;-78
2020/12/28 23:29:39;;;;;;;21.50;9.50;;;;;;;5.49;68.33;95811.70;250189;1148;22960;-77
2020/12/28 23:34:41;;;;;;;21.67;10.10;;;;;;;5.51;68.62;95806.83;250077;1148;22957;-78
2020/12/28 23:39:43;;;;;;;16.30;8.37;;;;;;;5.49;68.39;95804.50;250332;1148;23047;-78
2020/12/28 23:44:47;;;;;;;18.07;7.63;;;;;;;5.57;68.84;95789.61;250167;1148;22933;-80
2020/12/28 23:49:49;;;;;;;17.20;7.83;;;;;;;5.66;69.05;95781.54;250362;1148;25973;-77